Time;durP1;ratioP1;P1;durP2;ratioP2;P2;SDS_P1;SDS_P2;PMS_P1;PMS_P2;Temp;Humidity;BMP_temperature;BMP_pressure;BME280_temperature;BME280_humidity;BME280_pressure;Samples;Min_cycle;Max_cycle;Signal;HPM_P1;HPM_P2
2023/09/21 00:06:54;;;;;;;5.63;3.17;;;;;;;15.12;71.10;99641.47;31218113;28;97113;-64
2023/09/21 00:21:57;;;;;;;4.00;3.10;;;;;;;15.08;71.68;99630.34;31217943;27;97338;-76
2023/09/21 00:36:57;;;;;;;4.33;3.03;;;;;;;14.95;72.04;99617.81;31216598;28;96722;-62
2023/09/21 00:51:58;;;;;;;5.18;2.90;;;;;;;14.84;72.42;99605.91;31216242;28;97063;-76
2023/09/21 01:06:59;;;;;;;6.53;3.43;;;;;;;14.74;72.84;99602.84;31214252;28;96633;-66
2023/09/21 01:22:06;;;;;;;5.22;2.90;;;;;;;14.73;73.29;99585.09;31213117;28;99584;-65
2023/09/21 01:37:07;;;;;;;4.43;2.90;;;;;;;14.53;73.50;99571.78;31192728;28;96795;-64
2023/09/21 01:52:07;;;;;;;6.57;3.47;;;;;;;14.47;73.96;99569.91;31209574;28;96880;-65
2023/09/21 02:07:07;;;;;;;4.90;3.03;;;;;;;14.27;74.45;99559.25;31208595;28;96693;-63
2023/09/21 02:22:08;;;;;;;6.45;3.33;;;;;;;14.20;74.48;99527.97;31208439;28;97447;-64
2023/09/21 02:37:09;;;;;;;8.75;3.33;;;;;;;14.11;74.91;99521.19;31206553;28;97307;-63
2023/09/21 02:52:10;;;;;;;5.97;3.30;;;;;;;14.03;75.09;99521.41;31218675;27;96725;-65
2023/09/21 03:07:10;;;;;;;10.65;3.40;;;;;;;13.94;75.19;99509.25;31223513;28;97456;-62
2023/09/21 03:22:13;;;;;;;5.18;3.33;;;;;;;13.85;75.65;99509.47;31203160;28;98754;-69
2023/09/21 03:37:13;;;;;;;7.57;3.37;;;;;;;13.74;75.89;99491.38;31218538;28;97136;-63
2023/09/21 03:52:15;;;;;;;8.98;3.35;;;;;;;13.74;76.37;99480.69;31219499;28;97394;-63
2023/09/21 04:07:17;;;;;;;5.40;3.50;;;;;;;13.65;76.52;99460.50;31216198;28;96669;-70
2023/09/21 04:22:18;;;;;;;4.13;3.00;;;;;;;13.56;76.71;99461.75;31214845;28;97566;-67
2023/09/21 04:37:18;;;;;;;8.20;3.60;;;;;;;13.56;77.06;99453.72;31212678;28;97034;-68
2023/09/21 04:52:18;;;;;;;9.10;3.80;;;;;;;13.61;77.07;99451.25;31209068;28;113814;-70
2023/09/21 05:07:19;;;;;;;7.43;3.88;;;;;;;13.91;77.47;99438.19;31209496;27;114007;-72
2023/09/21 05:22:20;;;;;;;8.32;3.50;;;;;;;14.44;77.06;99437.16;31209743;28;102261;-63
2023/09/21 05:37:20;;;;;;;4.67;3.60;;;;;;;15.03;76.02;99424.44;31209108;28;97166;-70
2023/09/21 05:52:21;;;;;;;6.45;3.58;;;;;;;15.68;76.14;99425.94;31207502;28;109282;-70
2023/09/21 06:07:22;;;;;;;10.43;3.78;;;;;;;16.50;74.77;99440.91;31204352;28;96673;-67
2023/09/21 06:22:22;;;;;;;5.15;3.03;;;;;;;17.42;73.82;99430.84;31211733;27;97284;-70
2023/09/21 06:37:23;;;;;;;8.88;4.20;;;;;;;18.19;72.52;99432.56;31223796;28;103563;-71
2023/09/21 06:52:23;;;;;;;8.10;3.13;;;;;;;19.00;70.32;99426.22;31222892;28;96931;-64
2023/09/21 07:07:23;;;;;;;9.07;3.38;;;;;;;19.53;68.81;99424.06;31222227;28;97296;-74
2023/09/21 07:22:23;;;;;;;9.40;2.90;;;;;;;20.66;67.96;99418.41;31220297;28;110197;-70
2023/09/21 07:37:24;;;;;;;8.57;2.30;;;;;;;21.46;64.59;99426.69;31216042;27;112481;-64
2023/09/21 07:52:24;;;;;;;3.03;2.27;;;;;;;22.92;62.44;99414.22;31216101;28;96806;-68
2023/09/21 08:07:27;;;;;;;6.60;2.60;;;;;;;24.02;58.42;99402.06;31216164;28;97613;-63
2023/09/21 08:22:28;;;;;;;5.23;2.20;;;;;;;26.00;54.25;99386.28;31215094;28;97318;-63
2023/09/21 08:37:29;;;;;;;4.97;2.08;;;;;;;28.66;46.52;99383.72;31213198;28;107161;-68
2023/09/21 08:52:33;;;;;;;5.83;1.97;;;;;;;35.29;34.72;99365.88;31211297;28;96771;-69
2023/09/21 09:07:39;;;;;;;4.73;2.10;;;;;;;41.41;26.36;99356.09;31210844;28;96796;-65
2023/09/21 09:22:40;;;;;;;4.53;2.20;;;;;;;46.06;20.99;99333.66;31211467;28;97331;-63
2023/09/21 09:37:44;;;;;;;5.97;2.70;;;;;;;47.22;18.36;99319.75;31207119;28;97261;-64
2023/09/21 09:52:50;;;;;;;5.53;1.90;;;;;;;47.18;16.41;99302.16;31204309;28;97718;-62
2023/09/21 10:07:51;;;;;;;7.23;2.20;;;;;;;49.29;15.05;99301.84;31203177;28;97538;-66
2023/09/21 10:22:53;;;;;;;6.93;1.80;;;;;;;45.40;16.46;99277.06;31204386;28;97426;-66
2023/09/21 10:38:14;;;;;;;4.47;2.33;;;;;;;42.04;19.98;99262.47;31201991;28;97215;-63
2023/09/21 10:53:17;;;;;;;7.43;2.07;;;;;;;46.38;15.81;99230.81;31201312;28;97153;-66
2023/09/21 11:08:18;;;;;;;5.63;1.73;;;;;;;45.73;16.81;99208.97;31204328;28;97682;-63
2023/09/21 11:23:18;;;;;;;9.25;2.53;;;;;;;41.18;19.06;99194.47;31219938;28;97325;-62
2023/09/21 11:38:20;;;;;;;6.60;2.20;;;;;;;39.58;20.76;99158.38;31218982;28;97412;-65
2023/09/21 11:53:20;;;;;;;3.30;1.67;;;;;;;44.79;15.71;99149.72;31219050;28;97326;-66
2023/09/21 12:08:22;;;;;;;7.32;1.73;;;;;;;45.03;14.88;99141.25;31216072;28;97297;-74
2023/09/21 12:23:23;;;;;;;4.63;1.73;;;;;;;46.59;14.01;99099.97;31212669;28;97361;-62
2023/09/21 12:38:23;;;;;;;3.40;1.40;;;;;;;45.17;14.25;99112.09;31212616;28;97134;-66
2023/09/21 12:53:24;;;;;;;8.13;1.95;;;;;;;41.86;17.17;99083.59;31211242;28;112186;-65
2023/09/21 13:08:24;;;;;;;6.28;1.85;;;;;;;39.02;19.75;99074.94;31210839;28;116323;-64
2023/09/21 13:23:26;;;;;;;6.00;2.10;;;;;;;31.07;28.63;99069.16;31208872;28;97424;-68
2023/09/21 13:38:27;;;;;;;5.93;1.70;;;;;;;29.03;32.37;99055.50;31208263;28;98502;-72
2023/09/21 13:53:28;;;;;;;3.93;1.60;;;;;;;27.94;34.46;99054.13;31207202;28;97664;-67
2023/09/21 14:08:28;;;;;;;6.47;1.60;;;;;;;27.18;36.47;99052.13;31205710;28;97414;-65
2023/09/21 14:23:28;;;;;;;3.83;1.50;;;;;;;26.96;37.21;99026.38;31203547;28;97463;-68
2023/09/21 14:38:29;;;;;;;7.70;1.67;;;;;;;26.95;37.84;99030.22;31203554;28;97279;-64
2023/09/21 14:53:29;;;;;;;3.97;1.90;;;;;;;26.73;38.60;99011.06;31221963;27;97273;-69
2023/09/21 15:08:29;;;;;;;4.88;1.60;;;;;;;26.02;39.79;98998.53;31221791;28;97189;-74
2023/09/21 15:23:30;;;;;;;4.07;1.70;;;;;;;25.41;41.48;98990.31;31220931;28;108267;-74
2023/09/21 15:38:31;;;;;;;8.77;1.75;;;;;;;25.08;42.86;98986.72;31215778;28;97165;-74
2023/09/21 15:53:33;;;;;;;8.82;1.92;;;;;;;24.77;43.46;98970.84;31215341;27;97513;-69
2023/09/21 16:08:35;;;;;;;9.00;2.77;;;;;;;24.60;44.03;98965.88;31217674;28;97490;-63
2023/09/21 16:23:35;;;;;;;8.53;2.00;;;;;;;24.25;45.24;98965.22;31214720;28;97106;-70
2023/09/21 16:38:36;;;;;;;5.85;2.00;;;;;;;23.89;46.20;98965.66;31213556;28;97783;-69
2023/09/21 16:53:36;;;;;;;;;;;;;;;23.62;46.73;98956.91;31210705;28;96970;-63
2023/09/21 17:08:37;;;;;;;5.87;2.10;;;;;;;23.37;47.45;98951.72;31212325;27;97115;-67
2023/09/21 17:23:37;;;;;;;7.15;2.20;;;;;;;23.18;48.43;98943.44;31210339;28;96819;-73
2023/09/21 17:38:38;;;;;;;8.23;2.45;;;;;;;22.95;49.07;98940.31;31208624;28;97268;-63
2023/09/21 17:53:40;;;;;;;7.17;2.90;;;;;;;22.78;49.79;98935.28;31206838;28;98456;-63
2023/09/21 18:08:40;;;;;;;7.77;3.03;;;;;;;22.59;50.35;98933.22;31206149;28;111818;-62
2023/09/21 18:23:41;;;;;;;7.77;2.57;;;;;;;22.33;51.06;98923.59;31220282;28;112733;-71
2023/09/21 18:38:41;;;;;;;8.87;2.73;;;;;;;21.90;51.96;98921.31;31225314;28;97645;-63
2023/09/21 18:53:42;;;;;;;7.00;3.10;;;;;;;21.51;53.22;98914.59;31225121;28;97490;-63
2023/09/21 19:08:42;;;;;;;7.90;3.73;;;;;;;21.21;54.24;98904.63;31223810;28;97107;-63
2023/09/21 19:23:42;;;;;;;8.70;3.57;;;;;;;20.89;55.01;98898.41;31223181;28;97106;-65
2023/09/21 19:38:43;;;;;;;10.40;2.92;;;;;;;20.59;55.87;98886.41;31221606;27;96865;-73
2023/09/21 19:53:43;;;;;;;9.00;3.30;;;;;;;20.35;56.63;98871.78;31220070;28;96773;-63
2023/09/21 20:08:44;;;;;;;5.85;3.08;;;;;;;20.14;56.99;98860.91;31218999;28;97123;-64
2023/09/21 20:23:44;;;;;;;7.50;3.00;;;;;;;19.89;57.75;98845.44;31218267;28;97097;-64
2023/09/21 20:38:45;;;;;;;5.68;3.33;;;;;;;19.62;58.54;98822.84;31214620;27;97295;-64
2023/09/21 20:53:45;;;;;;;5.93;3.17;;;;;;;19.44;59.53;98817.91;31214452;28;96745;-65
2023/09/21 21:08:45;;;;;;;8.05;3.92;;;;;;;19.54;60.12;98817.94;31213873;28;105700;-67
2023/09/21 21:23:46;;;;;;;7.03;3.63;;;;;;;19.48;60.48;98819.00;31211715;28;96935;-63
2023/09/21 21:38:46;;;;;;;7.20;3.60;;;;;;;19.21;60.94;98811.81;31210684;28;107290;-67
2023/09/21 21:53:47;;;;;;;6.30;3.42;;;;;;;19.00;61.87;98796.56;31209139;28;103939;-71
2023/09/21 22:08:48;;;;;;;6.15;3.47;;;;;;;18.87;62.75;98795.91;31209738;28;97389;-70
2023/09/21 22:23:49;;;;;;;8.93;3.80;;;;;;;18.77;63.05;98790.47;31208723;28;97329;-62
2023/09/21 22:38:49;;;;;;;9.63;4.13;;;;;;;18.64;63.79;98772.81;31206585;28;97101;-63
2023/09/21 22:53:52;;;;;;;8.98;3.83;;;;;;;18.49;64.45;98762.72;31206189;28;97783;-71
2023/09/21 23:08:52;;;;;;;11.67;4.13;;;;;;;18.42;65.09;98744.06;31215378;27;96676;-62
2023/09/21 23:23:53;;;;;;;10.32;4.53;;;;;;;18.35;65.89;98739.97;31225183;28;97652;-72
2023/09/21 23:38:53;;;;;;;12.13;4.57;;;;;;;18.31;66.00;98763.13;31223467;28;96690;-68
2023/09/21 23:53:53;;;;;;;8.85;4.07;;;;;;;18.18;66.59;98756.25;31222737;28;96997;-72
